createdAt,value
2022-11-09T11:11:36.008Z,100137.55
2022-11-09T11:14:11.563Z,100139.75
2022-11-09T11:16:43.882Z,100145.45
2022-11-09T11:19:41.339Z,100135.73
2022-11-09T11:22:22.023Z,100143.69
2022-11-09T11:25:03.662Z,100131.34
2022-11-09T11:27:45.852Z,100128.23
2022-11-09T11:30:19.593Z,100137.05
2022-11-09T11:32:51.120Z,100134.38
2022-11-09T11:35:39.070Z,100130.41
2022-11-09T11:38:26.817Z,100136.12
2022-11-09T11:41:03.042Z,100130.83
2022-11-09T11:43:54.581Z,100136.09
2022-11-09T11:46:30.746Z,100125.95
2022-11-09T11:49:13.066Z,100144.91
2022-11-09T11:51:51.921Z,100141.83
2022-11-09T11:54:36.978Z,100137.83
2022-11-09T11:57:10.139Z,100140.48
2022-11-09T11:59:46.305Z,100154.13
2022-11-09T12:02:31.587Z,100151.00
2022-11-09T12:05:36.095Z,100154.94
2022-11-09T12:08:28.870Z,100146.09
2022-11-09T12:11:04.662Z,100151.83
2022-11-09T12:13:57.446Z,100143.84
2022-11-09T12:16:34.485Z,100131.83
2022-11-09T12:19:16.576Z,100139.16
2022-11-09T12:22:20.181Z,100122.20
2022-11-09T12:25:14.371Z,100124.72
2022-11-09T12:28:16.106Z,100128.27
2022-11-09T12:30:55.041Z,100116.42
2022-11-09T12:33:39.362Z,100116.52
2022-11-09T12:36:10.349Z,100116.13
2022-11-09T12:38:43.658Z,100112.22
2022-11-09T12:41:19.756Z,100114.97
2022-11-09T12:43:59.548Z,100121.19
2022-11-09T12:46:32.762Z,100119.45
2022-11-09T12:49:05.784Z,100127.00
2022-11-09T12:51:38.414Z,100126.59
2022-11-09T12:54:11.922Z,100120.47
2022-11-09T12:56:45.203Z,100122.70
2022-11-09T12:59:23.410Z,100130.66
2022-11-09T13:02:02.100Z,100138.61
2022-11-09T13:04:33.008Z,100137.31
2022-11-09T13:07:12.470Z,100145.70
2022-11-09T13:09:45.083Z,100145.26
2022-11-09T13:12:20.610Z,100150.13
2022-11-09T13:14:50.936Z,100147.48
2022-11-09T13:17:27.113Z,100145.74
2022-11-09T13:19:58.202Z,100138.22
2022-11-09T13:22:31.485Z,100135.58
2022-11-09T13:25:07.677Z,100132.96
2022-11-09T13:27:47.104Z,100139.58
2022-11-09T13:30:32.021Z,100136.93
2022-11-09T13:33:09.569Z,100133.87
2022-11-09T13:35:59.306Z,100139.13
2022-11-09T13:38:33.064Z,100135.64
2022-11-09T13:41:05.615Z,100132.13
2022-11-09T13:43:41.625Z,100128.15
2022-11-09T13:46:14.817Z,100132.58
2022-11-09T13:48:47.348Z,100132.58
2022-11-09T13:51:38.567Z,100136.55
2022-11-09T13:54:32.813Z,100135.64
2022-11-09T13:57:06.374Z,100133.02
2022-11-09T13:59:42.355Z,100130.80
2022-11-09T14:02:24.796Z,100137.87
2022-11-09T14:04:55.057Z,100139.19
2022-11-09T14:07:32.186Z,100142.70
2022-11-09T14:10:26.510Z,100149.32
2022-11-09T14:13:02.566Z,100150.22
2022-11-09T14:15:35.788Z,100154.19
2022-11-09T14:18:25.308Z,100142.28
2022-11-09T14:21:15.340Z,100140.54
2022-11-09T14:23:45.606Z,100150.67
2022-11-09T14:26:22.241Z,100154.63
2022-11-09T14:28:52.865Z,100161.28
2022-11-09T14:31:29.111Z,100170.53
2022-11-09T14:34:07.671Z,100172.73
2022-11-09T14:36:39.856Z,100166.14
2022-11-09T14:39:18.741Z,100169.20
2022-11-09T14:41:49.786Z,100167.88
2022-11-09T14:44:39.593Z,100166.14
2022-11-09T14:47:17.895Z,100163.49
2022-11-09T14:49:49.196Z,100158.23
2022-11-09T14:52:22.344Z,100167.03
2022-11-09T14:54:53.713Z,100167.03
2022-11-09T14:57:24.985Z,100166.16
2022-11-09T14:59:55.500Z,100164.38
2022-11-09T15:02:26.448Z,100165.26
2022-11-09T15:05:02.332Z,100160.87
2022-11-09T15:07:35.391Z,100164.83
2022-11-09T15:10:11.353Z,100161.31
2022-11-09T15:12:46.461Z,100165.70
2022-11-09T15:15:20.791Z,100162.61
2022-11-09T15:17:51.306Z,100161.29
2022-11-09T15:20:24.676Z,100154.27
2022-11-09T15:23:00.452Z,100152.03
2022-11-09T15:25:45.859Z,100154.23
2022-11-09T15:28:19.672Z,100163.07
2022-11-09T15:30:55.975Z,100145.87
2022-11-09T15:33:44.463Z,100145.87
2022-11-09T15:36:32.846Z,100145.87
2022-11-09T15:39:09.247Z,100146.75
2022-11-09T15:41:39.571Z,100143.23
2022-11-09T15:44:11.636Z,100147.65
2022-11-09T15:46:51.023Z,100147.20
2022-11-09T15:49:26.799Z,100148.97
2022-11-09T15:51:57.930Z,100151.61
2022-11-09T15:54:28.101Z,100155.13
2022-11-09T15:56:58.371Z,100155.13
2022-11-09T15:59:28.725Z,100156.45
2022-11-09T16:01:59.022Z,100150.28
2022-11-09T16:04:29.204Z,100148.97
2022-11-09T16:06:59.477Z,100145.00
2022-11-09T16:09:29.642Z,100144.55
2022-11-09T16:11:59.976Z,100144.99
2022-11-09T16:14:32.358Z,100139.70
2022-11-09T16:17:02.727Z,100146.77
2022-11-09T16:19:33.353Z,100143.67
2022-11-09T16:22:03.700Z,100141.02
2022-11-09T16:24:34.381Z,100135.73
2022-11-09T16:27:12.803Z,100139.28
2022-11-09T16:29:39.509Z,100138.83
2022-11-09T16:32:09.687Z,100145.89
2022-11-09T16:34:40.181Z,100142.80
2022-11-09T16:37:10.796Z,100141.92
2022-11-09T16:39:41.411Z,100142.80
2022-11-09T16:42:15.096Z,100148.09
2022-11-09T16:44:48.445Z,100149.44
2022-11-09T16:47:20.597Z,100145.89
2022-11-09T16:49:50.862Z,100153.40
2022-11-09T16:52:21.075Z,100157.78
2022-11-09T16:54:51.517Z,100154.27
2022-11-09T16:57:21.699Z,100152.08
2022-11-09T16:59:51.924Z,100153.84
2022-11-09T17:02:22.274Z,100153.39
2022-11-09T17:04:53.012Z,100153.84
2022-11-09T17:07:23.213Z,100141.95
2022-11-09T17:09:53.454Z,100145.45
2022-11-09T17:12:23.702Z,100144.59
2022-11-09T17:14:54.014Z,100145.45
2022-11-09T17:17:24.364Z,100145.04
2022-11-09T17:19:54.642Z,100149.00
2022-11-09T17:22:25.019Z,100121.66
2022-11-09T17:24:55.434Z,100143.69
2022-11-09T17:27:25.844Z,100141.05
2022-11-09T17:29:56.078Z,100140.59
2022-11-09T17:32:28.149Z,100140.15
2022-11-09T17:34:58.680Z,100136.64
2022-11-09T17:37:29.041Z,100138.39
2022-11-09T17:39:59.398Z,100138.36
2022-11-09T17:42:29.582Z,100138.81
2022-11-09T17:44:59.865Z,100139.69
2022-11-09T17:47:30.181Z,100140.11
2022-11-09T17:50:00.490Z,100134.38
2022-11-09T17:52:30.834Z,100143.18
2022-11-09T17:55:01.211Z,100144.51
2022-11-09T17:57:32.725Z,100149.80
2022-11-09T18:00:05.594Z,100139.64
2022-11-09T18:02:36.496Z,100141.83
2022-11-09T18:05:07.478Z,100148.03
2022-11-09T18:07:37.686Z,100147.12
2022-11-09T18:10:08.666Z,100142.73
2022-11-09T18:12:38.972Z,100147.16
2022-11-09T18:15:10.053Z,100145.83
2022-11-09T18:17:40.366Z,100143.19
2022-11-09T18:20:10.828Z,100139.21
2022-11-09T18:22:41.205Z,100145.37
2022-11-09T18:25:12.268Z,100143.18
2022-11-09T18:27:42.611Z,100148.92
2022-11-09T18:30:13.767Z,100154.64
2022-11-09T18:32:44.493Z,100147.16
2022-11-09T18:35:14.897Z,100150.67
2022-11-09T18:37:49.007Z,100146.70
2022-11-09T18:40:19.364Z,100154.66
2022-11-09T18:42:49.793Z,100148.08
2022-11-09T18:45:21.890Z,100150.30
2022-11-09T18:47:52.210Z,100151.63
2022-11-09T18:50:22.680Z,100155.16
2022-11-09T18:52:52.885Z,100132.68
2022-11-09T18:55:23.354Z,100152.07
2022-11-09T18:57:53.812Z,100149.42
2022-11-09T19:00:24.153Z,100150.76
2022-11-09T19:02:54.710Z,100162.66
2022-11-09T19:05:24.999Z,100159.55
2022-11-09T19:07:55.194Z,100167.94
2022-11-09T19:10:25.422Z,100158.67
2022-11-09T19:12:55.597Z,100160.44
2022-11-09T19:15:25.794Z,100162.20
2022-11-09T19:17:56.197Z,100167.06
2022-11-09T19:20:26.488Z,100171.89
2022-11-09T19:22:56.691Z,100168.83
2022-11-09T19:25:26.900Z,100167.95
2022-11-09T19:27:57.120Z,100179.38
2022-11-09T19:30:27.656Z,100183.34
2022-11-09T19:32:58.845Z,100171.47
2022-11-09T19:35:33.858Z,100182.05
2022-11-09T19:38:06.219Z,100193.48
2022-11-09T19:40:39.567Z,100191.29
2022-11-09T19:43:06.479Z,100185.55
2022-11-09T19:45:43.993Z,100180.28
2022-11-09T19:48:14.284Z,100183.80
2022-11-09T19:50:52.116Z,100182.92
2022-11-09T19:53:22.344Z,100176.31
2022-11-09T19:55:55.584Z,100171.04
2022-11-09T19:58:25.702Z,100164.43
2022-11-09T20:01:08.382Z,100167.07
2022-11-09T20:03:39.094Z,100166.63
2022-11-09T20:06:09.447Z,100157.82
2022-11-09T20:08:40.923Z,100164.85
2022-11-09T20:11:19.296Z,100174.55
2022-11-09T20:13:49.907Z,100170.13
2022-11-09T20:16:20.180Z,100167.51
2022-11-09T20:18:50.311Z,100167.06
2022-11-09T20:21:20.525Z,100169.25
2022-11-09T20:23:50.654Z,100178.50
2022-11-09T20:26:20.863Z,100180.27
2022-11-09T20:28:53.239Z,100179.40
2022-11-09T20:31:24.600Z,100174.98
2022-11-09T20:33:56.480Z,100178.50
2022-11-09T20:36:26.695Z,100183.36
2022-11-09T20:38:56.805Z,100178.08
2022-11-09T20:41:27.202Z,100179.39
2022-11-09T20:43:57.368Z,100183.80
2022-11-09T20:46:32.690Z,100182.02
2022-11-09T20:49:02.286Z,100188.20
2022-11-09T20:51:32.793Z,100175.42
2022-11-09T20:54:07.167Z,100182.92
2022-11-09T20:56:35.511Z,100176.30
2022-11-09T20:59:06.057Z,100173.22
2022-11-09T21:01:36.498Z,100163.97
2022-11-09T21:04:07.063Z,100165.72
2022-11-09T21:06:37.432Z,100163.94
2022-11-09T21:09:07.698Z,100169.67
2022-11-09T21:11:39.672Z,100169.69
2022-11-09T21:14:11.860Z,100167.91
2022-11-09T21:16:42.057Z,100174.50
2022-11-09T21:19:12.130Z,100165.28
2022-11-09T21:21:42.251Z,100171.86
2022-11-09T21:24:30.314Z,100169.68
2022-11-09T21:27:19.021Z,100171.88
2022-11-09T21:29:50.824Z,100167.92
2022-11-09T21:32:23.315Z,100168.39
2022-11-09T21:34:53.465Z,100171.88
2022-11-09T21:37:24.051Z,100167.05
2022-11-09T21:39:54.660Z,100169.71
2022-11-09T21:42:24.904Z,100171.01
2022-11-09T21:44:55.102Z,100178.08
2022-11-09T21:47:25.625Z,100177.62
2022-11-09T21:49:55.747Z,100179.83
2022-11-09T21:52:26.047Z,100174.11
2022-11-09T21:54:56.416Z,100177.17
2022-11-09T21:57:27.057Z,100174.11
2022-11-09T21:59:57.273Z,100167.93
2022-11-09T22:02:27.537Z,100173.22
2022-11-09T22:04:57.641Z,100177.64
2022-11-09T22:07:27.743Z,100176.31
2022-11-09T22:10:09.906Z,100175.41
2022-11-09T22:12:47.941Z,100169.27
2022-11-09T22:15:36.177Z,100171.91
2022-11-09T22:18:06.441Z,100170.58
2022-11-09T22:20:56.237Z,100166.60
2022-11-09T22:23:26.617Z,100169.27
2022-11-09T22:25:56.787Z,100173.66
2022-11-09T22:28:26.874Z,100174.97
2022-11-09T22:30:57.021Z,100168.38
2022-11-09T22:33:27.805Z,100174.11
2022-11-09T22:35:59.933Z,100161.77
2022-11-09T22:38:32.372Z,100168.83
2022-11-09T22:41:07.341Z,100174.55
2022-11-09T22:43:39.844Z,100167.05
2022-11-09T22:46:18.165Z,100163.97
2022-11-09T22:48:48.489Z,100159.57
2022-11-09T22:51:19.700Z,100161.33
2022-11-09T22:53:50.938Z,100162.66
2022-11-09T22:56:21.172Z,100170.16
2022-11-09T22:58:53.392Z,100169.70
2022-11-09T23:01:23.877Z,100163.52
2022-11-09T23:03:54.356Z,100166.63
2022-11-09T23:06:25.461Z,100160.45
2022-11-09T23:08:55.620Z,100169.70
2022-11-09T23:11:25.946Z,100169.27
2022-11-09T23:13:56.922Z,100166.17
2022-11-09T23:16:27.726Z,100163.53
2022-11-09T23:18:57.795Z,100166.59
2022-11-09T23:21:33.319Z,100170.15
2022-11-09T23:24:06.563Z,100162.22
2022-11-09T23:26:36.953Z,100162.65
2022-11-09T23:29:07.230Z,100167.04
2022-11-09T23:31:37.416Z,100176.32
2022-11-09T23:34:10.274Z,100185.55
2022-11-09T23:36:40.687Z,100192.16
2022-11-09T23:39:11.052Z,100187.32
2022-11-09T23:41:41.262Z,100181.13
2022-11-09T23:44:11.439Z,100193.05
2022-11-09T23:46:41.698Z,100193.05
2022-11-09T23:49:11.949Z,100190.40
2022-11-09T23:51:42.165Z,100194.36
2022-11-09T23:54:12.467Z,100202.72
2022-11-09T23:56:42.699Z,100193.05
2022-11-09T23:59:12.778Z,100186.87
